Time;durP1;ratioP1;P1;durP2;ratioP2;P2;SDS_P1;SDS_P2;PMS_P1;PMS_P2;Temp;Humidity;BMP_temperature;BMP_pressure;BME280_temperature;BME280_humidity;BME280_pressure;Samples;Min_cycle;Max_cycle;Signal;HPM_P1;HPM_P2
2023/02/20 00:00:47;;;;;;;4.60;2.50;;;;;;;6.30;100.00;96474.75;5023166;28;20527;-74
2023/02/20 00:03:24;;;;;;;6.55;2.72;;;;;;;6.35;100.00;96480.16;5025692;28;20041;-74
2023/02/20 00:05:49;;;;;;;9.13;2.97;;;;;;;6.28;100.00;96479.41;5029286;28;20497;-75
2023/02/20 00:08:15;;;;;;;8.30;2.72;;;;;;;6.26;100.00;96489.28;5026130;28;20052;-73
2023/02/20 00:10:41;;;;;;;5.18;2.45;;;;;;;6.30;100.00;96487.03;5024384;28;20522;-75
2023/02/20 00:13:06;;;;;;;9.75;2.88;;;;;;;6.30;100.00;96492.28;5024722;28;20409;-75
2023/02/20 00:15:32;;;;;;;7.97;2.95;;;;;;;6.19;100.00;96491.16;5025600;28;20037;-74
2023/02/20 00:17:57;;;;;;;10.20;3.25;;;;;;;6.32;100.00;96501.50;5028563;28;20048;-74
2023/02/20 00:20:24;;;;;;;7.43;3.00;;;;;;;6.35;100.00;96501.06;5022152;28;20075;-74
2023/02/20 00:22:51;;;;;;;8.95;2.78;;;;;;;6.33;100.00;96497.84;5029044;28;20037;-74
2023/02/20 00:25:17;;;;;;;7.50;2.83;;;;;;;6.30;100.00;96500.91;5023849;28;20060;-74
2023/02/20 00:27:43;;;;;;;6.60;2.60;;;;;;;6.30;100.00;96498.28;5028414;28;20037;-74
2023/02/20 00:30:15;;;;;;;7.93;2.95;;;;;;;6.26;100.00;96497.13;5025017;28;20059;-74
2023/02/20 00:32:40;;;;;;;9.13;2.90;;;;;;;6.27;100.00;96498.72;5026586;28;20456;-74
2023/02/20 00:35:09;;;;;;;5.53;2.50;;;;;;;6.30;100.00;96493.06;5022296;28;20034;-74
2023/02/20 00:37:34;;;;;;;6.47;2.95;;;;;;;6.33;100.00;96492.63;5026412;28;20044;-74
2023/02/20 00:40:00;;;;;;;9.93;3.10;;;;;;;6.28;100.00;96489.88;5025120;28;20042;-74
2023/02/20 00:42:25;;;;;;;6.18;2.55;;;;;;;6.27;100.00;96493.50;5026766;28;20080;-74
2023/02/20 00:44:51;;;;;;;8.80;2.78;;;;;;;6.21;100.00;96478.69;5026316;28;20049;-74
2023/02/20 00:47:16;;;;;;;6.05;2.55;;;;;;;6.23;100.00;96487.09;5027291;28;20128;-74
2023/02/20 00:49:42;;;;;;;6.50;3.10;;;;;;;6.23;100.00;96487.09;5024148;28;20037;-74
2023/02/20 00:52:07;;;;;;;9.77;2.95;;;;;;;6.25;100.00;96492.94;5028423;28;20131;-74
2023/02/20 00:54:33;;;;;;;8.55;2.90;;;;;;;6.20;100.00;96492.78;5027064;28;20045;-74
2023/02/20 00:56:58;;;;;;;10.35;3.22;;;;;;;6.19;100.00;96489.38;5026931;28;20041;-74
2023/02/20 00:59:24;;;;;;;8.82;3.15;;;;;;;6.22;100.00;96490.72;5028049;28;20091;-74
2023/02/20 01:01:49;;;;;;;11.48;2.90;;;;;;;6.20;100.00;96477.09;5021864;28;20152;-74
2023/02/20 01:04:15;;;;;;;7.90;2.90;;;;;;;6.14;100.00;96483.19;5026265;28;20409;-74
2023/02/20 01:06:40;;;;;;;8.25;2.97;;;;;;;6.13;100.00;96489.41;5027321;28;20037;-74
2023/02/20 01:09:06;;;;;;;10.85;2.75;;;;;;;6.12;100.00;96486.03;5028544;28;20037;-74
2023/02/20 01:11:32;;;;;;;5.97;2.78;;;;;;;6.12;100.00;96487.81;5005878;28;20061;-74
2023/02/20 01:13:57;;;;;;;9.63;3.28;;;;;;;6.14;100.00;96483.19;5026495;28;20505;-74
2023/02/20 01:16:23;;;;;;;6.55;2.80;;;;;;;6.15;100.00;96480.34;5025662;28;20046;-74
2023/02/20 01:18:50;;;;;;;8.07;3.20;;;;;;;6.10;100.00;96487.25;5027071;28;20505;-74
2023/02/20 01:21:15;;;;;;;10.20;3.30;;;;;;;6.06;100.00;96482.47;5030780;28;20033;-74
2023/02/20 01:23:41;;;;;;;7.97;3.22;;;;;;;6.11;100.00;96487.03;5031957;28;20044;-74
2023/02/20 01:26:06;;;;;;;5.90;2.90;;;;;;;6.13;100.00;96481.59;5030304;28;20041;-74
2023/02/20 01:28:32;;;;;;;6.10;3.10;;;;;;;6.10;100.00;96482.03;5029236;28;20037;-74
2023/02/20 01:30:57;;;;;;;10.50;3.53;;;;;;;6.07;100.00;96483.25;5030071;28;20053;-74
2023/02/20 01:33:23;;;;;;;9.52;3.15;;;;;;;6.08;100.00;96482.25;5027908;28;20052;-74
2023/02/20 01:35:48;;;;;;;10.27;3.05;;;;;;;6.11;100.00;96479.19;5024941;28;20481;-74
2023/02/20 01:38:14;;;;;;;10.25;3.40;;;;;;;6.09;100.00;96480.41;5028563;28;20041;-74
2023/02/20 01:40:47;;;;;;;5.88;3.20;;;;;;;6.04;100.00;96489.69;5025637;28;20258;-74
2023/02/20 01:43:13;;;;;;;9.07;3.38;;;;;;;6.04;100.00;96468.78;5028648;28;20687;-74
2023/02/20 01:45:40;;;;;;;10.52;3.53;;;;;;;6.11;100.00;96473.19;5031877;28;20046;-74
2023/02/20 01:48:05;;;;;;;5.72;3.00;;;;;;;6.06;100.00;96474.63;5029849;28;20044;-74
2023/02/20 01:50:38;;;;;;;9.93;3.20;;;;;;;6.07;100.00;96476.19;5030645;28;20045;-74
2023/02/20 01:53:10;;;;;;;9.32;3.53;;;;;;;6.07;100.00;96481.41;5030106;28;20452;-74
2023/02/20 01:55:41;;;;;;;5.95;2.90;;;;;;;6.06;100.00;96482.47;5031566;28;20041;-74
2023/02/20 01:58:16;;;;;;;7.68;3.20;;;;;;;6.03;100.00;96472.44;5026453;28;20390;-74
2023/02/20 02:00:42;;;;;;;6.53;3.22;;;;;;;6.06;100.00;96466.78;5029849;28;20551;-75
2023/02/20 02:03:11;;;;;;;8.88;3.60;;;;;;;6.11;100.00;96470.56;5025695;28;20033;-75
2023/02/20 02:05:40;;;;;;;7.28;3.10;;;;;;;6.06;100.00;96464.16;5027771;28;20041;-74
2023/02/20 02:08:08;;;;;;;7.55;3.47;;;;;;;6.09;100.00;96465.53;5030506;28;20529;-74
2023/02/20 02:11:00;;;;;;;11.77;3.25;;;;;;;6.14;100.00;96457.84;5029811;28;20045;-75
2023/02/20 02:13:26;;;;;;;9.30;3.33;;;;;;;6.10;100.00;96455.88;5025258;28;20073;-74
2023/02/20 02:16:00;;;;;;;9.88;3.47;;;;;;;6.16;100.00;96455.00;5027328;28;20034;-75
2023/02/20 02:18:50;;;;;;;9.10;3.28;;;;;;;6.09;100.00;96449.06;5029702;28;20045;-74
2023/02/20 02:21:40;;;;;;;9.43;3.42;;;;;;;6.07;100.00;96447.44;5023155;28;20037;-75
2023/02/20 02:24:15;;;;;;;7.50;3.38;;;;;;;6.10;100.00;96453.28;5029500;28;20034;-74
2023/02/20 02:27:12;;;;;;;7.68;3.25;;;;;;;6.03;100.00;96456.75;5026423;28;20037;-75
2023/02/20 02:30:16;;;;;;;9.38;3.25;;;;;;;6.09;100.00;96455.06;5027231;28;20413;-75
2023/02/20 02:33:06;;;;;;;8.75;3.45;;;;;;;6.05;100.00;96454.72;5025926;28;20042;-75
2023/02/20 02:36:01;;;;;;;12.02;3.95;;;;;;;6.02;100.00;96449.13;5022326;28;20077;-75
2023/02/20 02:38:32;;;;;;;;;;;;;;;6.06;100.00;96458.94;5027636;28;20061;-74
2023/02/20 02:41:21;;;;;;;9.80;3.40;;;;;;;6.06;100.00;96445.88;5026306;28;19929;-75
2023/02/20 02:44:07;;;;;;;10.48;3.58;;;;;;;6.04;100.00;96452.31;5024050;28;20420;-74
2023/02/20 02:46:37;;;;;;;8.18;3.50;;;;;;;6.05;100.00;96444.28;5029480;28;20111;-74
2023/02/20 02:49:23;;;;;;;11.00;3.83;;;;;;;6.04;100.00;96442.66;5027754;28;20100;-75
2023/02/20 02:51:52;;;;;;;7.90;3.53;;;;;;;6.04;100.00;96442.66;5028148;28;20128;-75
2023/02/20 02:54:25;;;;;;;12.55;3.50;;;;;;;6.04;100.00;96442.66;5042571;28;20049;-75
2023/02/20 02:56:52;;;;;;;7.15;3.65;;;;;;;6.03;100.00;96438.47;5030231;28;20079;-74
2023/02/20 02:59:28;;;;;;;10.23;3.60;;;;;;;6.02;100.00;96439.47;5029858;28;20041;-75
2023/02/20 03:02:00;;;;;;;10.52;3.92;;;;;;;6.02;100.00;96439.47;5028336;28;20052;-75
2023/02/20 03:04:28;;;;;;;8.32;3.15;;;;;;;6.05;100.00;96444.28;5022367;28;20048;-74
2023/02/20 03:06:59;;;;;;;11.23;3.75;;;;;;;6.05;100.00;96439.03;5024399;28;20047;-74
2023/02/20 03:09:33;;;;;;;12.40;3.70;;;;;;;6.13;100.00;96455.44;5029345;28;20037;-74
2023/02/20 03:12:01;;;;;;;10.07;3.13;;;;;;;6.03;100.00;96451.53;5025206;28;20041;-75
2023/02/20 03:17:45;;;;;;;8.73;3.75;;;;;;;6.06;100.00;96453.72;5030009;28;20037;-74
2023/02/20 03:20:15;;;;;;;9.20;3.92;;;;;;;6.01;100.00;96456.16;5023828;28;20045;-74
2023/02/20 03:22:47;;;;;;;8.93;3.80;;;;;;;5.99;100.00;96460.81;5025753;28;20500;-74
2023/02/20 03:25:29;;;;;;;10.18;3.30;;;;;;;5.98;100.00;96445.38;5028072;28;20045;-75
2023/02/20 03:28:09;;;;;;;10.48;3.53;;;;;;;5.99;100.00;96445.16;5028636;28;20037;-75
2023/02/20 03:31:00;;;;;;;10.98;3.50;;;;;;;5.97;100.00;96439.31;5025682;28;20099;-74
2023/02/20 03:44:50;;;;;;;14.27;3.75;;;;;;;5.80;100.00;96430.44;5027303;28;20037;-75
2023/02/20 03:47:20;;;;;;;10.02;3.95;;;;;;;5.80;100.00;96440.88;5028222;28;20398;-74
2023/02/20 03:49:48;;;;;;;8.48;3.78;;;;;;;5.76;100.00;96434.47;5028529;28;20112;-75
2023/02/20 03:52:15;;;;;;;10.70;3.60;;;;;;;5.76;100.00;96437.09;5026498;28;20060;-74
2023/02/20 03:54:41;;;;;;;8.75;4.05;;;;;;;5.71;100.00;96433.31;5028271;28;20041;-74
2023/02/20 03:57:21;;;;;;;11.35;3.55;;;;;;;5.68;100.00;96440.78;5020428;28;20034;-74
2023/02/20 03:59:59;;;;;;;8.45;3.53;;;;;;;5.61;100.00;96438.22;5023301;28;20034;-75
2023/02/20 04:02:29;;;;;;;11.10;4.00;;;;;;;5.61;100.00;96446.06;5016307;28;20088;-74
2023/02/20 04:04:58;;;;;;;8.65;3.50;;;;;;;5.55;100.00;96439.09;5026996;28;20099;-74
2023/02/20 04:07:30;;;;;;;12.02;3.63;;;;;;;5.54;100.00;96440.09;5021874;28;20417;-74
2023/02/20 04:09:59;;;;;;;8.75;3.85;;;;;;;5.49;100.00;96439.94;5028310;28;20497;-74
2023/02/20 04:12:30;;;;;;;8.60;3.50;;;;;;;5.42;100.00;96444.44;5020558;28;20490;-74
2023/02/20 04:14:57;;;;;;;6.32;3.28;;;;;;;5.35;100.00;96450.47;5025518;28;20103;-75
2023/02/20 04:17:27;;;;;;;12.63;3.80;;;;;;;5.30;100.00;96447.72;5026336;28;20041;-75
2023/02/20 04:19:54;;;;;;;9.70;3.70;;;;;;;5.25;100.00;96444.94;5026084;28;20076;-75
2023/02/20 04:22:26;;;;;;;11.82;3.70;;;;;;;5.29;100.00;96443.50;5024594;28;20037;-74
2023/02/20 04:25:20;;;;;;;9.25;4.32;;;;;;;5.23;100.00;96441.75;5029129;28;20087;-74
2023/02/20 04:27:46;;;;;;;8.55;3.60;;;;;;;5.26;100.00;96441.31;5027267;28;20037;-75
2023/02/20 04:30:12;;;;;;;9.95;3.72;;;;;;;5.23;100.00;96452.19;5026918;28;20049;-75
2023/02/20 04:32:38;;;;;;;12.93;3.92;;;;;;;5.18;100.00;96454.63;5027289;28;20501;-74
2023/02/20 04:35:03;;;;;;;11.60;4.10;;;;;;;5.12;100.00;96448.44;5025573;28;20045;-75
2023/02/20 04:37:29;;;;;;;11.07;4.05;;;;;;;5.12;100.00;96445.03;5023325;28;20082;-75
2023/02/20 04:39:54;;;;;;;12.85;4.20;;;;;;;5.13;100.00;96446.63;5025485;28;20045;-73
2023/02/20 04:42:20;;;;;;;13.90;4.15;;;;;;;5.02;100.00;96446.28;5022652;28;20042;-73
2023/02/20 04:44:45;;;;;;;12.40;3.40;;;;;;;4.98;100.00;96450.31;5026324;28;20037;-73
2023/02/20 04:47:14;;;;;;;10.48;3.58;;;;;;;5.06;100.00;96451.09;5026107;28;20045;-73
2023/02/20 04:49:39;;;;;;;11.07;4.10;;;;;;;5.00;100.00;96443.09;5025170;28;20496;-73
2023/02/20 04:52:05;;;;;;;11.38;4.10;;;;;;;4.99;100.00;96441.50;5024998;28;20038;-73
2023/02/20 04:54:30;;;;;;;8.13;3.97;;;;;;;4.92;100.00;96448.56;5032002;28;20041;-73
2023/02/20 04:56:56;;;;;;;8.43;3.65;;;;;;;4.87;100.00;96445.81;5030102;28;20083;-73
2023/02/20 04:59:21;;;;;;;7.75;3.40;;;;;;;4.99;100.00;96441.50;5029614;28;20038;-73
2023/02/20 05:01:48;;;;;;;14.50;4.22;;;;;;;4.92;100.00;96440.75;5032245;28;20034;-73
2023/02/20 05:04:18;;;;;;;8.63;3.63;;;;;;;4.85;100.00;96439.97;5027363;28;20057;-73
2023/02/20 05:06:51;;;;;;;10.93;4.03;;;;;;;4.83;100.00;96442.00;5030253;28;20041;-73
2023/02/20 05:09:17;;;;;;;11.27;3.97;;;;;;;4.87;100.00;96435.38;5028109;28;20048;-73
2023/02/20 05:11:42;;;;;;;8.80;3.70;;;;;;;4.78;100.00;96439.22;5028442;28;20041;-73
2023/02/20 05:14:08;;;;;;;12.32;3.97;;;;;;;4.79;100.00;96430.41;5028590;28;20413;-73
2023/02/20 05:16:37;;;;;;;7.07;3.50;;;;;;;4.75;100.00;96439.63;5027905;28;20038;-73
2023/02/20 05:19:03;;;;;;;8.68;3.63;;;;;;;4.83;100.00;96444.63;5028233;28;20050;-73
2023/02/20 05:24:12;;;;;;;10.03;3.90;;;;;;;4.69;100.00;96446.50;5026819;28;20037;-73
2023/02/20 05:26:38;;;;;;;7.05;3.40;;;;;;;4.56;100.00;96452.56;5032328;28;20050;-73
2023/02/20 05:29:04;;;;;;;11.68;3.88;;;;;;;4.46;100.00;96452.22;5025785;28;20034;-74
2023/02/20 05:31:30;;;;;;;8.65;3.47;;;;;;;4.46;100.00;96447.78;5026787;28;20111;-73
2023/02/20 05:33:55;;;;;;;11.52;3.88;;;;;;;4.39;100.00;96456.66;5039429;28;20042;-74
2023/02/20 05:36:21;;;;;;;8.60;4.05;;;;;;;4.28;100.00;96461.50;5030076;28;20049;-74
2023/02/20 05:38:48;;;;;;;10.98;3.83;;;;;;;4.06;100.00;96462.75;5028898;28;20034;-74
2023/02/20 05:41:18;;;;;;;7.45;3.83;;;;;;;3.95;100.00;96465.00;5031749;28;20497;-74
2023/02/20 05:43:44;;;;;;;12.25;3.60;;;;;;;4.06;100.00;96462.75;5023303;28;20416;-74
2023/02/20 05:46:10;;;;;;;9.95;4.22;;;;;;;3.89;100.00;96463.19;5025908;28;20042;-74
2023/02/20 05:48:35;;;;;;;11.32;4.03;;;;;;;3.81;100.00;96466.03;5027767;28;20038;-74
2023/02/20 05:51:01;;;;;;;8.68;3.75;;;;;;;3.93;100.00;96464.38;5021867;28;20433;-74
2023/02/20 05:53:28;;;;;;;9.10;3.20;;;;;;;3.72;100.00;96467.22;5027142;28;20477;-73
2023/02/20 05:55:54;;;;;;;7.03;3.28;;;;;;;3.71;100.00;96465.63;5031428;28;20052;-73
2023/02/20 05:58:19;;;;;;;7.85;3.38;;;;;;;3.48;100.00;96472.03;5029930;28;20030;-73
2023/02/20 06:00:45;;;;;;;13.48;3.70;;;;;;;3.26;100.00;96479.22;5021141;28;20451;-74
2023/02/20 06:03:10;;;;;;;7.82;3.55;;;;;;;3.10;100.00;96475.19;5026569;28;20037;-73
2023/02/20 06:05:36;;;;;;;7.32;3.30;;;;;;;2.91;100.00;96482.75;5026196;28;20080;-73
2023/02/20 06:08:02;;;;;;;10.88;3.80;;;;;;;2.78;100.00;96487.94;5029474;28;20045;-74
2023/02/20 06:10:27;;;;;;;14.07;4.57;;;;;;;2.72;100.00;96484.31;5026239;28;20421;-74
2023/02/20 06:12:53;;;;;;;9.63;3.75;;;;;;;2.62;100.00;96488.28;5028602;28;20048;-74
2023/02/20 06:15:18;;;;;;;12.82;4.18;;;;;;;2.57;100.00;96492.28;5029587;28;20045;-74
2023/02/20 06:17:44;;;;;;;10.38;4.07;;;;;;;2.56;100.00;96490.66;5028491;28;20072;-74
2023/02/20 06:20:10;;;;;;;11.38;3.88;;;;;;;2.65;100.00;96498.31;5027142;28;20038;-74
2023/02/20 06:22:35;;;;;;;13.30;4.50;;;;;;;2.55;100.00;96499.44;5029727;28;20041;-74
2023/02/20 06:25:01;;;;;;;10.85;4.18;;;;;;;2.43;100.00;96498.41;5031070;28;20052;-74
2023/02/20 06:27:26;;;;;;;12.32;4.13;;;;;;;2.35;100.00;96493.38;5029642;28;20041;-74
2023/02/20 06:29:52;;;;;;;10.18;4.70;;;;;;;2.30;100.00;96503.53;5026538;28;20042;-75
2023/02/20 06:32:17;;;;;;;10.20;3.90;;;;;;;2.30;100.00;96500.94;5034901;28;20037;-75
2023/02/20 06:34:44;;;;;;;7.80;3.53;;;;;;;2.48;100.00;96498.63;5041933;28;20490;-74
2023/02/20 06:37:10;;;;;;;11.27;3.90;;;;;;;2.80;100.00;96498.13;5039825;28;20037;-74
2023/02/20 06:39:36;;;;;;;7.90;3.67;;;;;;;2.99;100.00;96504.38;5029181;28;20095;-74
2023/02/20 06:42:02;;;;;;;10.40;3.50;;;;;;;2.92;100.00;96505.19;5025566;28;20124;-75
2023/02/20 06:44:27;;;;;;;8.27;3.58;;;;;;;2.97;100.00;96498.59;5032365;28;20038;-75
2023/02/20 06:46:54;;;;;;;8.18;3.35;;;;;;;3.03;100.00;96497.78;5024392;28;20046;-74
2023/02/20 06:49:20;;;;;;;11.40;4.05;;;;;;;3.15;100.00;96491.03;5027208;28;20045;-74
2023/02/20 06:51:45;;;;;;;11.25;3.90;;;;;;;3.28;100.00;96504.03;5028499;28;20501;-74
2023/02/20 06:54:12;;;;;;;7.90;3.60;;;;;;;3.35;100.00;96503.25;5028763;28;20120;-73
2023/02/20 06:56:37;;;;;;;9.70;3.65;;;;;;;3.40;100.00;96500.84;5027038;28;20038;-74
2023/02/20 06:59:05;;;;;;;10.50;3.90;;;;;;;3.46;100.00;96505.25;5021977;28;20049;-74
2023/02/20 07:01:40;;;;;;;9.77;4.07;;;;;;;3.49;100.00;96504.06;5025979;28;20048;-74
2023/02/20 07:04:13;;;;;;;9.05;3.75;;;;;;;3.56;100.00;96505.69;5021808;28;20037;-75
2023/02/20 07:06:38;;;;;;;9.98;3.88;;;;;;;3.63;100.00;96500.47;5028185;28;20046;-75
2023/02/20 07:09:04;;;;;;;10.30;3.67;;;;;;;3.70;100.00;96510.88;5027481;28;20029;-75
2023/02/20 07:11:29;;;;;;;15.82;4.70;;;;;;;3.86;100.00;96510.47;5025141;28;20473;-75
2023/02/20 07:13:57;;;;;;;10.65;4.15;;;;;;;3.88;100.00;96503.28;5029532;28;20493;-77
2023/02/20 07:16:22;;;;;;;7.15;3.70;;;;;;;4.02;100.00;96511.06;5028124;28;20541;-77
2023/02/20 07:18:48;;;;;;;11.32;4.38;;;;;;;3.92;100.00;96509.69;5023560;28;20044;-78
2023/02/20 07:21:14;;;;;;;12.13;4.20;;;;;;;3.96;100.00;96510.84;5023825;28;20040;-77
2023/02/20 07:23:39;;;;;;;6.90;3.70;;;;;;;4.14;100.00;96506.84;5031403;28;20052;-77
2023/02/20 07:26:05;;;;;;;9.77;4.20;;;;;;;4.15;100.00;96511.84;5026408;28;20668;-77
2023/02/20 07:28:33;;;;;;;13.57;4.00;;;;;;;4.23;100.00;96516.03;5025592;28;20073;-77
2023/02/20 07:30:59;;;;;;;8.82;4.07;;;;;;;4.34;100.00;96512.00;5023814;28;20049;-76
2023/02/20 07:33:24;;;;;;;16.20;4.80;;;;;;;4.45;100.00;96516.59;5022948;28;20049;-76
2023/02/20 07:35:50;;;;;;;11.18;3.80;;;;;;;4.65;100.00;96513.88;5027452;28;20045;-75
2023/02/20 07:38:15;;;;;;;9.50;3.97;;;;;;;4.78;100.00;96513.03;5021260;28;20417;-75
2023/02/20 07:40:41;;;;;;;14.63;4.00;;;;;;;4.95;100.00;96515.16;5021303;28;20042;-75
2023/02/20 07:43:06;;;;;;;13.50;4.55;;;;;;;5.06;100.00;96513.69;5040451;28;20041;-75
2023/02/20 07:45:32;;;;;;;10.75;4.35;;;;;;;5.12;100.00;96518.09;5033004;28;20099;-76
2023/02/20 07:47:57;;;;;;;14.35;4.47;;;;;;;5.08;100.00;96511.69;5023938;28;20050;-75
2023/02/20 07:50:23;;;;;;;19.95;4.30;;;;;;;5.22;100.00;96508.00;5023827;28;20067;-75
2023/02/20 07:52:48;;;;;;;11.60;4.65;;;;;;;5.27;100.00;96502.97;5029882;28;20039;-75
2023/02/20 07:55:15;;;;;;;12.77;4.30;;;;;;;5.42;100.00;96501.84;5028062;28;20042;-76
2023/02/20 07:57:44;;;;;;;10.73;3.80;;;;;;;5.30;100.00;96489.47;5027988;28;20048;-75
2023/02/20 08:00:13;;;;;;;12.27;4.50;;;;;;;5.28;100.00;96501.13;5024856;28;20040;-75
2023/02/20 08:02:39;;;;;;;11.88;4.35;;;;;;;5.33;100.00;96489.06;5023279;28;20058;-75
2023/02/20 08:05:04;;;;;;;9.40;4.10;;;;;;;5.37;100.00;96495.47;5025645;28;20064;-75
2023/02/20 08:07:30;;;;;;;9.10;3.65;;;;;;;5.49;100.00;96486.94;5029586;28;20057;-75
2023/02/20 08:09:55;;;;;;;9.25;4.13;;;;;;;5.59;100.00;96482.03;5029688;28;20034;-75
2023/02/20 08:12:21;;;;;;;11.15;4.03;;;;;;;5.81;100.00;96484.28;5026235;28;20042;-75
2023/02/20 08:14:50;;;;;;;12.75;4.13;;;;;;;5.99;100.00;96486.94;5028026;28;20033;-75
2023/02/20 08:17:15;;;;;;;11.20;3.70;;;;;;;6.20;100.00;96461.41;5029483;28;20033;-75
2023/02/20 08:19:41;;;;;;;16.75;3.75;;;;;;;6.34;100.00;96462.06;5027927;28;20046;-75
2023/02/20 08:22:06;;;;;;;10.63;3.70;;;;;;;6.52;100.00;96471.69;5021335;28;20041;-75
2023/02/20 08:24:32;;;;;;;13.07;3.80;;;;;;;6.59;100.00;96461.97;5030077;28;20033;-75
2023/02/20 08:26:58;;;;;;;9.25;3.53;;;;;;;6.66;100.00;96454.81;5029793;28;20486;-75
2023/02/20 08:29:23;;;;;;;9.07;3.53;;;;;;;6.79;100.00;96463.53;5031520;28;20048;-75
2023/02/20 08:31:49;;;;;;;9.23;3.45;;;;;;;6.86;100.00;96466.88;5036277;28;20420;-75
2023/02/20 08:34:14;;;;;;;10.52;3.92;;;;;;;6.90;100.00;96475.88;5030190;28;20112;-75
2023/02/20 08:36:40;;;;;;;14.88;3.38;;;;;;;6.84;100.00;96468.88;5031690;28;20120;-75
2023/02/20 08:39:05;;;;;;;8.60;3.65;;;;;;;6.97;100.00;96450.41;5033230;28;20117;-75
2023/02/20 08:41:31;;;;;;;14.85;4.05;;;;;;;7.04;100.00;96455.53;5033011;28;20044;-75
2023/02/20 08:43:57;;;;;;;9.32;3.17;;;;;;;7.23;100.00;96458.91;5024227;28;20048;-75
2023/02/20 08:46:22;;;;;;;11.80;3.63;;;;;;;7.41;100.00;96450.16;5031947;28;20048;-75
2023/02/20 08:48:48;;;;;;;10.98;4.32;;;;;;;7.27;100.00;96449.59;5030624;28;20045;-75
2023/02/20 08:51:18;;;;;;;9.82;3.60;;;;;;;7.38;100.00;96456.63;5031019;28;20046;-75
2023/02/20 08:53:43;;;;;;;7.55;3.08;;;;;;;7.33;100.00;96445.28;5032556;28;20049;-75
2023/02/20 08:56:09;;;;;;;12.75;3.65;;;;;;;7.40;100.00;96438.91;5031697;28;20409;-75
2023/02/20 08:58:34;;;;;;;6.28;3.20;;;;;;;7.49;100.00;96430.72;5042811;28;20076;-75
2023/02/20 09:01:00;;;;;;;10.02;3.80;;;;;;;7.58;100.00;96430.13;5032836;28;20033;-76
2023/02/20 09:03:26;;;;;;;8.65;3.63;;;;;;;7.52;100.00;96435.50;5027223;28;20095;-75
2023/02/20 09:05:51;;;;;;;13.13;3.78;;;;;;;7.35;100.00;96441.38;5031336;28;20045;-75
2023/02/20 09:08:17;;;;;;;7.63;3.78;;;;;;;7.30;100.00;96438.66;5035752;28;20096;-75
2023/02/20 09:10:43;;;;;;;10.32;3.47;;;;;;;7.32;100.00;96441.03;5035257;28;20037;-75
2023/02/20 09:13:08;;;;;;;8.20;3.85;;;;;;;7.32;100.00;96425.34;5024424;28;20099;-75
2023/02/20 09:15:38;;;;;;;10.60;3.80;;;;;;;7.46;100.00;96426.72;5034594;28;20061;-75
2023/02/20 09:18:05;;;;;;;10.80;3.72;;;;;;;7.57;100.00;96417.25;5033144;28;20045;-76
2023/02/20 09:20:31;;;;;;;9.57;3.75;;;;;;;7.74;100.00;96409.50;5026372;28;20045;-76
2023/02/20 09:22:58;;;;;;;8.20;3.20;;;;;;;7.76;100.00;96399.63;5030857;28;20425;-76
2023/02/20 09:25:25;;;;;;;9.95;3.42;;;;;;;7.91;100.00;96401.75;5031813;28;20045;-76
2023/02/20 09:27:51;;;;;;;6.78;3.40;;;;;;;8.02;100.00;96403.56;5032938;28;20456;-75
2023/02/20 09:30:19;;;;;;;9.73;3.33;;;;;;;8.12;100.00;96401.16;5029391;28;20038;-75
2023/02/20 09:32:46;;;;;;;12.50;3.33;;;;;;;8.24;100.00;96403.75;5027106;28;20042;-75
2023/02/20 09:35:23;;;;;;;6.95;3.42;;;;;;;8.28;100.00;96401.47;5031249;28;20641;-75
2023/02/20 09:37:49;;;;;;;6.72;3.25;;;;;;;8.38;100.00;96406.91;5034957;28;20052;-76
2023/02/20 09:40:15;;;;;;;7.80;3.13;;;;;;;8.35;100.00;96404.75;5029887;28;20041;-75
2023/02/20 09:43:01;;;;;;;9.05;3.35;;;;;;;8.47;100.00;96408.16;5029669;28;20041;-76
2023/02/20 09:45:32;;;;;;;6.00;2.97;;;;;;;8.55;100.00;96400.94;5029847;28;20041;-75
2023/02/20 09:47:57;;;;;;;13.73;3.67;;;;;;;8.63;100.00;96401.38;5029638;28;20069;-74
2023/02/20 09:50:38;;;;;;;7.05;2.92;;;;;;;8.73;100.00;96387.63;5030073;28;20045;-75
2023/02/20 09:53:30;;;;;;;5.95;2.90;;;;;;;8.94;100.00;96393.25;5031646;28;20041;-75
2023/02/20 09:55:58;;;;;;;6.05;3.03;;;;;;;9.07;100.00;96389.53;5030344;28;20041;-72
2023/02/20 09:58:43;;;;;;;8.15;3.20;;;;;;;9.19;98.64;96375.28;5027002;28;20120;-73
2023/02/20 10:01:14;;;;;;;9.35;3.40;;;;;;;9.54;99.97;96362.94;5030773;28;20037;-73
2023/02/20 10:03:54;;;;;;;7.35;2.80;;;;;;;9.40;94.67;96354.56;5026322;28;20045;-72
2023/02/20 10:06:24;;;;;;;5.80;2.80;;;;;;;9.65;92.15;96350.72;5026450;28;20053;-73
2023/02/20 10:08:51;;;;;;;9.93;2.88;;;;;;;10.14;90.32;96361.34;5030212;28;20041;-74
2023/02/20 10:11:35;;;;;;;8.70;3.28;;;;;;;10.53;85.12;96361.25;5029681;28;20088;-74
2023/02/20 10:14:29;;;;;;;12.57;3.20;;;;;;;11.54;78.98;96356.28;5030472;28;20105;-74
2023/02/20 10:17:09;;;;;;;6.13;2.80;;;;;;;12.18;71.88;96336.03;5029388;28;20037;-74
2023/02/20 10:19:50;;;;;;;9.50;2.95;;;;;;;12.40;70.02;96332.44;5028507;28;20326;-75
2023/02/20 10:22:28;;;;;;;6.18;2.83;;;;;;;13.03;63.91;96334.88;5024001;28;20040;-74
2023/02/20 10:24:56;;;;;;;5.65;2.55;;;;;;;12.69;64.12;96334.59;5031287;28;20118;-74
2023/02/20 10:27:30;;;;;;;5.88;2.50;;;;;;;11.92;69.35;96333.28;5033977;28;20436;-74
2023/02/20 10:29:58;;;;;;;10.07;2.90;;;;;;;11.84;69.72;96339.06;5029358;28;20086;-74
2023/02/20 10:32:31;;;;;;;6.63;2.60;;;;;;;12.24;65.83;96350.84;5031372;28;20115;-75
2023/02/20 10:34:59;;;;;;;4.95;2.50;;;;;;;12.82;63.30;96349.91;5028616;28;20041;-75
2023/02/20 10:37:32;;;;;;;10.13;2.80;;;;;;;12.30;65.75;96349.03;5026965;28;20033;-75
2023/02/20 10:40:11;;;;;;;4.85;2.58;;;;;;;11.79;67.75;96339.00;5030790;28;20104;-74
2023/02/20 10:42:54;;;;;;;11.43;2.95;;;;;;;11.75;69.86;96340.56;5026059;28;20452;-74
2023/02/20 10:45:32;;;;;;;6.97;2.63;;;;;;;11.90;68.11;96340.66;5024623;28;20064;-76
2023/02/20 10:48:09;;;;;;;6.43;2.40;;;;;;;11.89;69.94;96328.50;5020892;28;20041;-74
2023/02/20 10:50:41;;;;;;;6.30;2.90;;;;;;;11.63;69.82;96324.19;5024752;28;20072;-76
2023/02/20 10:53:30;;;;;;;7.72;2.63;;;;;;;11.69;71.43;96323.16;5028744;28;20037;-75
2023/02/20 10:56:54;;;;;;;8.15;2.40;;;;;;;12.67;66.04;96315.56;5022156;28;20125;-75
2023/02/20 10:59:27;;;;;;;5.47;2.53;;;;;;;12.84;62.89;96305.53;4964784;28;20093;-74
2023/02/20 11:02:01;;;;;;;6.05;2.20;;;;;;;13.73;60.63;96291.16;5029772;28;20478;-74
2023/02/20 11:04:38;;;;;;;8.52;2.40;;;;;;;15.28;53.19;96298.97;5023734;28;20049;-74
2023/02/20 11:07:14;;;;;;;8.23;2.78;;;;;;;15.09;52.80;96304.16;5019571;28;20102;-73
2023/02/20 11:09:40;;;;;;;4.03;2.08;;;;;;;14.55;53.72;96298.69;5029306;28;20164;-74
2023/02/20 11:12:06;;;;;;;9.07;3.78;;;;;;;15.46;51.22;96294.78;5023575;28;20033;-74
2023/02/20 11:14:42;;;;;;;5.25;2.60;;;;;;;16.01;50.41;96283.88;5025590;28;20050;-74
2023/02/20 11:17:14;;;;;;;5.53;2.55;;;;;;;15.44;51.26;96281.81;5025356;28;20394;-74
2023/02/20 11:19:48;;;;;;;10.27;3.03;;;;;;;16.55;47.83;96265.84;5022248;28;20087;-74
2023/02/20 11:22:15;;;;;;;;;;;;;;;16.51;47.01;96262.22;5023098;28;20124;-74
2023/02/20 11:24:42;;;;;;;4.97;2.40;;;;;;;16.38;46.39;96253.88;5027246;28;19925;-74
2023/02/20 11:27:21;;;;;;;6.60;2.40;;;;;;;17.23;46.37;96253.09;5027799;28;20041;-74
2023/02/20 11:29:53;;;;;;;5.18;2.38;;;;;;;17.47;45.01;96252.94;5028650;28;20080;-74
2023/02/20 11:32:19;;;;;;;5.32;2.17;;;;;;;16.86;47.86;96238.81;5027098;28;20512;-74
2023/02/20 11:34:44;;;;;;;3.80;2.20;;;;;;;18.22;44.65;96250.13;5025867;28;20034;-74
2023/02/20 11:37:11;;;;;;;5.95;2.55;;;;;;;17.71;43.67;96247.38;5027280;28;20040;-74
2023/02/20 11:39:37;;;;;;;6.18;2.53;;;;;;;19.52;39.81;96242.16;5028529;28;20132;-73
2023/02/20 11:42:21;;;;;;;6.18;3.17;;;;;;;19.34;39.79;96240.53;5028775;28;20084;-74
2023/02/20 11:45:10;;;;;;;4.30;2.50;;;;;;;20.23;38.55;96233.22;5033834;28;20068;-74
2023/02/20 11:47:37;;;;;;;4.13;2.17;;;;;;;18.23;41.65;96235.69;5030860;28;20050;-74
2023/02/20 11:50:09;;;;;;;5.72;2.40;;;;;;;17.37;42.91;96235.28;5032580;28;20052;-73
2023/02/20 11:52:34;;;;;;;5.13;2.40;;;;;;;17.30;45.32;96232.22;5034344;28;20432;-74
2023/02/20 11:55:23;;;;;;;5.93;2.92;;;;;;;17.23;44.16;96223.84;5027344;28;20045;-74
2023/02/20 11:57:49;;;;;;;8.32;2.58;;;;;;;19.47;40.18;96212.94;5020069;28;20098;-75
2023/02/20 12:00:42;;;;;;;6.93;2.30;;;;;;;19.68;38.69;96217.69;5024591;28;20033;-75